Time,TemperatureF,DewpointF,PressureIn,WindDirection,WindDirectionDegrees,WindSpeedMPH,WindSpeedGustMPH,Humidity,HourlyPrecipIn,Conditions,Clouds,dailyrainin,SoftwareType,DateUTC
2013-01-11 00:01:00,1.2,0.8,29.25,North,0,0.0,-999.0,98,-99.99,,,0.00,Acu-Link.com,2013-01-11 07:01:00,
2013-01-11 00:16:00,0.3,-0.8,29.24,NNE,22,0.0,-999.0,95,-99.99,,,0.00,Acu-Link.com,2013-01-11 07:16:00,
2013-01-11 00:33:00,0.3,-0.1,29.22,West,270,0.0,-999.0,98,-99.99,,,0.00,Acu-Link.com,2013-01-11 07:33:00,
2013-01-11 00:48:00,0.1,-1.0,29.23,West,270,0.0,-999.0,95,-99.99,,,0.00,Acu-Link.com,2013-01-11 07:48:00,
2013-01-11 01:04:00,0.1,-0.3,29.20,West,270,0.0,-999.0,98,-99.99,,,0.00,Acu-Link.com,2013-01-11 08:04:00,
2013-01-11 01:19:00,1.4,1.0,29.19,ESE,112,2.2,-999.0,98,-99.99,,,0.00,Acu-Link.com,2013-01-11 08:19:00,
2013-01-11 01:34:00,0.7,0.3,29.18,West,270,2.7,-999.0,98,-99.99,,,0.00,Acu-Link.com,2013-01-11 08:34:00,
2013-01-11 01:50:00,1.6,1.2,29.17,SE,135,0.0,-999.0,98,-99.99,,,0.00,Acu-Link.com,2013-01-11 08:50:00,
2013-01-11 02:11:00,2.7,2.3,29.15,ESE,112,0.0,-999.0,98,-99.99,,,0.00,Acu-Link.com,2013-01-11 09:11:00,
2013-01-11 02:27:00,3.7,3.3,29.12,ENE,67,3.2,-999.0,98,-99.99,,,0.00,Acu-Link.com,2013-01-11 09:27:00,
2013-01-11 02:42:00,3.2,1.9,29.10,NE,45,3.2,-999.0,94,-99.99,,,0.00,Acu-Link.com,2013-01-11 09:42:00,
2013-01-11 02:57:00,3.0,2.6,29.11,NNE,22,1.7,-999.0,98,-99.99,,,0.00,Acu-Link.com,2013-01-11 09:57:00,
2013-01-11 03:12:00,2.7,2.3,29.09,WSW,247,2.2,-999.0,98,-99.99,,,0.00,Acu-Link.com,2013-01-11 10:12:00,
2013-01-11 03:28:00,2.7,2.3,29.06,SW,225,1.7,-999.0,98,-99.99,,,0.00,Acu-Link.com,2013-01-11 10:28:00,
2013-01-11 03:43:00,3.9,3.5,29.06,SW,225,1.7,-999.0,98,-99.99,,,0.00,Acu-Link.com,2013-01-11 10:43:00,
2013-01-11 03:58:00,4.3,3.9,29.04,SW,225,1.7,-999.0,98,-99.99,,,0.00,Acu-Link.com,2013-01-11 10:58:00,
2013-01-11 04:14:00,4.3,3.9,29.02,NE,45,0.0,-999.0,98,-99.99,,,0.00,Acu-Link.com,2013-01-11 11:14:00,
2013-01-11 04:29:00,4.5,4.1,29.00,North,0,0.0,-999.0,98,-99.99,,,0.00,Acu-Link.com,2013-01-11 11:29:00,
2013-01-11 04:44:00,5.2,4.8,29.00,South,180,0.0,-999.0,98,-99.99,,,0.00,Acu-Link.com,2013-01-11 11:44:00,
2013-01-11 04:59:00,6.3,5.9,29.03,SSW,202,3.2,-999.0,98,-99.99,,,0.00,Acu-Link.com,2013-01-11 11:59:00,
2013-01-11 05:15:00,8.4,8.0,29.04,West,270,2.2,-999.0,98,-99.99,,,0.00,Acu-Link.com,2013-01-11 12:15:00,
2013-01-11 05:30:00,9.0,8.6,29.03,NE,45,2.2,-999.0,98,-99.99,,,0.00,Acu-Link.com,2013-01-11 12:30:00,
2013-01-11 05:45:00,10.6,10.1,29.05,North,0,0.0,-999.0,98,-99.99,,,0.00,Acu-Link.com,2013-01-11 12:45:00,
2013-01-11 06:01:00,14.2,13.7,29.02,ENE,67,2.2,-999.0,98,-99.99,,,0.00,Acu-Link.com,2013-01-11 13:01:00,
2013-01-11 06:16:00,17.1,16.6,29.04,SW,225,2.7,-999.0,98,-99.99,,,0.00,Acu-Link.com,2013-01-11 13:16:00,
2013-01-11 06:31:00,17.8,17.3,29.06,SSE,157,2.2,-999.0,98,-99.99,,,0.00,Acu-Link.com,2013-01-11 13:31:00,
2013-01-11 06:47:00,18.3,17.8,29.05,SSW,202,2.2,-999.0,98,-99.99,,,0.00,Acu-Link.com,2013-01-11 13:47:00,
2013-01-11 07:02:00,18.3,17.8,29.07,SW,225,2.7,-999.0,98,-99.99,,,0.00,Acu-Link.com,2013-01-11 14:02:00,
2013-01-11 07:17:00,18.3,17.4,29.10,WSW,247,7.8,-999.0,96,-99.99,,,0.00,Acu-Link.com,2013-01-11 14:17:00,
2013-01-11 07:33:00,17.8,15.1,29.11,West,270,4.2,-999.0,89,-99.99,,,0.00,Acu-Link.com,2013-01-11 14:33:00,
2013-01-11 07:48:00,16.9,12.4,29.13,SW,225,6.3,-999.0,82,-99.99,,,0.00,Acu-Link.com,2013-01-11 14:48:00,
2013-01-11 08:03:00,16.9,9.5,29.13,SW,225,2.7,-999.0,72,-99.99,,,0.00,Acu-Link.com,2013-01-11 15:03:00,
2013-01-11 08:18:00,16.9,7.5,29.14,WSW,247,2.7,-999.0,66,-99.99,,,0.00,Acu-Link.com,2013-01-11 15:18:00,
2013-01-11 08:34:00,16.2,6.5,29.14,West,270,5.3,-999.0,65,-99.99,,,0.00,Acu-Link.com,2013-01-11 15:34:00,
2013-01-11 08:49:00,16.2,4.4,29.15,SSW,202,6.3,-999.0,59,-99.99,,,0.00,Acu-Link.com,2013-01-11 15:49:00,
2013-01-11 09:04:00,16.7,3.8,29.17,SW,225,5.8,-999.0,56,-99.99,,,0.00,Acu-Link.com,2013-01-11 16:04:00,
2013-01-11 09:20:00,17.8,3.6,29.17,SE,135,6.3,-999.0,53,-99.99,,,0.00,Acu-Link.com,2013-01-11 16:20:00,
2013-01-11 09:35:00,17.8,4.0,29.18,WNW,292,4.7,-999.0,54,-99.99,,,0.00,Acu-Link.com,2013-01-11 16:35:00,
2013-01-11 09:50:00,17.6,5.4,29.21,SW,225,11.9,-999.0,58,-99.99,,,0.00,Acu-Link.com,2013-01-11 16:50:00,
2013-01-11 10:05:00,17.2,4.6,29.21,West,270,6.3,-999.0,57,-99.99,,,0.00,Acu-Link.com,2013-01-11 17:05:00,
2013-01-11 10:20:00,16.5,2.8,29.21,WSW,247,6.8,-999.0,54,-99.99,,,0.00,Acu-Link.com,2013-01-11 17:20:00,
2013-01-11 10:36:00,17.2,1.8,29.22,West,270,4.2,-999.0,50,-99.99,,,0.00,Acu-Link.com,2013-01-11 17:36:00,
2013-01-11 10:51:00,18.5,2.6,29.22,SW,225,9.4,-999.0,49,-99.99,,,0.00,Acu-Link.com,2013-01-11 17:51:00,
2013-01-11 11:06:00,16.9,-0.3,29.21,SSW,202,7.8,-999.0,46,-99.99,,,0.00,Acu-Link.com,2013-01-11 18:06:00,
2013-01-11 11:22:00,20.1,2.7,29.22,South,180,13.5,-999.0,46,-99.99,,,0.00,Acu-Link.com,2013-01-11 18:22:00,
2013-01-11 11:37:00,21.0,1.6,29.20,WSW,247,5.8,-999.0,42,-99.99,,,0.00,Acu-Link.com,2013-01-11 18:37:00,
2013-01-11 11:52:00,17.6,-0.6,29.20,WNW,292,6.8,-999.0,44,-99.99,,,0.00,Acu-Link.com,2013-01-11 18:52:00,
2013-01-11 12:08:00,19.0,1.2,29.20,West,270,8.9,-999.0,45,-99.99,,,0.00,Acu-Link.com,2013-01-11 19:08:00,
2013-01-11 12:23:00,22.6,2.0,29.19,West,270,7.8,-999.0,40,-99.99,,,0.00,Acu-Link.com,2013-01-11 19:23:00,
2013-01-11 12:38:00,19.9,0.6,29.19,WSW,247,14.0,-999.0,42,-99.99,,,0.00,Acu-Link.com,2013-01-11 19:38:00,
2013-01-11 12:53:00,21.0,0.5,29.20,SSW,202,7.8,-999.0,40,-99.99,,,0.00,Acu-Link.com,2013-01-11 19:53:00,
2013-01-11 13:08:00,20.8,2.4,29.20,WNW,292,14.5,-999.0,44,-99.99,,,0.00,Acu-Link.com,2013-01-11 20:08:00,
2013-01-11 13:23:00,20.1,2.7,29.21,SSW,202,5.3,-999.0,46,-99.99,,,0.00,Acu-Link.com,2013-01-11 20:23:00,
2013-01-11 13:39:00,19.9,1.5,29.21,SW,225,8.3,-999.0,44,-99.99,,,0.00,Acu-Link.com,2013-01-11 20:39:00,
2013-01-11 13:54:00,20.5,2.1,29.20,SSW,202,9.4,-999.0,44,-99.99,,,0.00,Acu-Link.com,2013-01-11 20:54:00,
2013-01-11 14:09:00,18.9,1.6,29.21,SW,225,12.5,-999.0,46,-99.99,,,0.00,Acu-Link.com,2013-01-11 21:09:00,
2013-01-11 14:24:00,18.9,1.6,29.24,NW,315,11.9,-999.0,46,-99.99,,,0.00,Acu-Link.com,2013-01-11 21:24:00,
2013-01-11 14:40:00,16.3,0.5,29.23,South,180,10.4,-999.0,49,-99.99,,,0.00,Acu-Link.com,2013-01-11 21:40:00,
2013-01-11 14:55:00,14.4,4.8,29.26,WSW,247,7.8,-999.0,65,-99.99,,,0.00,Acu-Link.com,2013-01-11 21:55:00,
2013-01-11 15:10:00,14.0,4.1,29.26,WSW,247,7.3,-999.0,64,-99.99,,,0.00,Acu-Link.com,2013-01-11 22:10:00,
2013-01-11 15:26:00,14.4,2.7,29.26,SW,225,4.7,-999.0,59,-99.99,,,0.00,Acu-Link.com,2013-01-11 22:26:00,
2013-01-11 15:41:00,12.7,0.0,29.28,SW,225,9.4,-999.0,56,-99.99,,,0.00,Acu-Link.com,2013-01-11 22:41:00,
2013-01-11 15:56:00,14.0,2.0,29.27,SSW,202,7.3,-999.0,58,-99.99,,,0.00,Acu-Link.com,2013-01-11 22:56:00,
2013-01-11 16:11:00,12.7,5.4,29.28,SW,225,6.8,-999.0,72,-99.99,,,0.00,Acu-Link.com,2013-01-11 23:11:00,
2013-01-11 16:27:00,11.7,5.3,29.31,West,270,6.3,-999.0,75,-99.99,,,0.00,Acu-Link.com,2013-01-11 23:27:00,
2013-01-11 16:42:00,10.9,4.3,29.30,SW,225,5.3,-999.0,74,-99.99,,,0.00,Acu-Link.com,2013-01-11 23:42:00,
2013-01-11 16:57:00,10.2,4.7,29.30,West,270,5.3,-999.0,78,-99.99,,,0.00,Acu-Link.com,2013-01-11 23:57:00,
2013-01-11 17:13:00,8.8,3.9,29.32,South,180,5.8,-999.0,80,-99.99,,,0.00,Acu-Link.com,2013-01-12 00:13:00,
2013-01-11 17:28:00,8.6,3.7,29.33,South,180,2.2,-999.0,80,-99.99,,,0.00,Acu-Link.com,2013-01-12 00:28:00,
2013-01-11 17:43:00,9.1,3.9,29.35,SW,225,4.2,-999.0,79,-99.99,,,0.00,Acu-Link.com,2013-01-12 00:43:00,
2013-01-11 17:58:00,8.6,4.0,29.36,SW,225,5.3,-999.0,81,-99.99,,,0.00,Acu-Link.com,2013-01-12 00:58:00,
2013-01-11 18:14:00,8.8,5.0,29.36,SSW,202,9.9,-999.0,84,-99.99,,,0.00,Acu-Link.com,2013-01-12 01:14:00,
2013-01-11 18:29:00,9.7,6.6,29.37,SW,225,6.8,-999.0,87,-99.99,,,0.00,Acu-Link.com,2013-01-12 01:29:00,
2013-01-11 18:44:00,9.0,7.4,29.37,SSW,202,2.7,-999.0,93,-99.99,,,0.00,Acu-Link.com,2013-01-12 01:44:00,
2013-01-11 18:59:00,7.3,4.5,29.38,WSW,247,3.7,-999.0,88,-99.99,,,0.00,Acu-Link.com,2013-01-12 01:59:00,
2013-01-11 19:15:00,5.7,1.4,29.39,SW,225,4.2,-999.0,82,-99.99,,,0.00,Acu-Link.com,2013-01-12 02:15:00,
2013-01-11 19:30:00,5.5,3.2,29.40,West,270,6.3,-999.0,90,-99.99,,,0.00,Acu-Link.com,2013-01-12 02:30:00,
2013-01-11 19:45:00,5.4,2.1,29.38,WSW,247,4.2,-999.0,86,-99.99,,,0.00,Acu-Link.com,2013-01-12 02:45:00,
2013-01-11 20:01:00,5.9,1.9,29.39,West,270,3.7,-999.0,83,-99.99,,,0.00,Acu-Link.com,2013-01-12 03:01:00,
2013-01-11 20:16:00,7.0,3.5,29.41,SSW,202,4.2,-999.0,85,-99.99,,,0.00,Acu-Link.com,2013-01-12 03:16:00,
2013-01-11 20:31:00,6.3,4.0,29.39,SW,225,3.2,-999.0,90,-99.99,,,0.00,Acu-Link.com,2013-01-12 03:31:00,
2013-01-11 20:46:00,4.8,2.8,29.39,WSW,247,3.7,-999.0,91,-99.99,,,0.00,Acu-Link.com,2013-01-12 03:46:00,
2013-01-11 21:02:00,4.5,2.2,29.41,SSW,202,3.2,-999.0,90,-99.99,,,0.00,Acu-Link.com,2013-01-12 04:02:00,
2013-01-11 21:17:00,4.3,2.3,29.41,SW,225,4.2,-999.0,91,-99.99,,,0.00,Acu-Link.com,2013-01-12 04:17:00,
2013-01-11 21:32:00,4.5,1.3,29.42,SW,225,4.7,-999.0,86,-99.99,,,0.00,Acu-Link.com,2013-01-12 04:32:00,
2013-01-11 21:48:00,4.1,0.6,29.41,SW,225,4.2,-999.0,85,-99.99,,,0.00,Acu-Link.com,2013-01-12 04:48:00,
2013-01-11 22:03:00,3.6,0.6,29.42,NNE,22,2.7,-999.0,87,-99.99,,,0.00,Acu-Link.com,2013-01-12 05:03:00,
2013-01-11 22:18:00,1.8,-0.9,29.43,WNW,292,0.0,-999.0,88,-99.99,,,0.00,Acu-Link.com,2013-01-12 05:18:00,
2013-01-11 22:33:00,1.2,0.1,29.42,WNW,292,0.0,-999.0,95,-99.99,,,0.00,Acu-Link.com,2013-01-12 05:33:00,
2013-01-11 22:49:00,-1.1,-4.3,29.42,North,0,0.0,-999.0,86,-99.99,,,0.00,Acu-Link.com,2013-01-12 05:49:00,
2013-01-11 23:04:00,-1.8,-3.3,29.43,NNW,337,0.0,-999.0,93,-99.99,,,0.00,Acu-Link.com,2013-01-12 06:04:00,
2013-01-11 23:30:00,-1.7,-3.0,29.42,SW,225,2.2,-999.0,94,-99.99,,,0.00,Acu-Link.com,2013-01-12 06:30:00,
2013-01-11 23:48:00,-4.5,-7.8,29.43,NE,45,0.0,-999.0,85,-99.99,,,0.00,Acu-Link.com,2013-01-12 06:48:00,